Time;durP1;ratioP1;P1;durP2;ratioP2;P2;SDS_P1;SDS_P2;PMS_P1;PMS_P2;Temp;Humidity;BMP_temperature;BMP_pressure;BME280_temperature;BME280_humidity;BME280_pressure;Samples;Min_cycle;Max_cycle;Signal;HPM_P1;HPM_P2
2021/03/31 00:00:45;;;;;;;24.00;14.13;;;9.20;82.00;;;;;;4368980;32;20154;-66
2021/03/31 00:03:13;;;;;;;25.67;15.10;;;9.20;82.60;;;;;;4372611;32;20483;-65
2021/03/31 00:05:40;;;;;;;26.50;14.40;;;9.20;81.80;;;;;;4374445;32;20165;-66
2021/03/31 00:08:07;;;;;;;29.07;15.40;;;9.20;84.00;;;;;;4375136;32;20180;-66
2021/03/31 00:10:38;;;;;;;26.53;16.70;;;9.10;81.90;;;;;;4373259;32;20625;-65
2021/03/31 00:13:05;;;;;;;26.63;15.53;;;9.10;82.10;;;;;;4374979;32;20201;-68
2021/03/31 00:15:33;;;;;;;28.60;16.23;;;9.10;83.20;;;;;;4371331;32;20633;-68
2021/03/31 00:17:59;;;;;;;24.43;14.80;;;9.10;83.30;;;;;;4372296;32;20178;-68
2021/03/31 00:20:28;;;;;;;28.43;16.17;;;8.90;83.40;;;;;;4367934;32;20150;-67
2021/03/31 00:22:56;;;;;;;30.87;16.17;;;9.00;83.00;;;;;;4369082;32;20224;-66
2021/03/31 00:25:22;;;;;;;26.07;15.47;;;9.00;82.90;;;;;;4369359;32;20169;-67
2021/03/31 00:27:49;;;;;;;26.60;15.00;;;9.00;83.40;;;;;;4370811;32;20240;-68
2021/03/31 00:30:17;;;;;;;25.47;14.53;;;8.90;83.10;;;;;;4362937;32;20161;-67
2021/03/31 00:33:05;;;;;;;27.43;15.37;;;8.90;83.10;;;;;;4361437;32;20239;-66
2021/03/31 00:35:32;;;;;;;26.67;15.33;;;8.90;83.30;;;;;;4362381;32;20174;-66
2021/03/31 00:37:58;;;;;;;31.67;15.53;;;8.90;83.30;;;;;;4365592;32;20169;-66
2021/03/31 00:40:29;;;;;;;26.33;15.43;;;8.80;84.80;;;;;;4369192;32;20162;-66
2021/03/31 00:42:56;;;;;;;26.77;14.63;;;8.80;84.30;;;;;;4369540;32;20148;-67
2021/03/31 00:45:24;;;;;;;26.33;15.30;;;8.80;84.20;;;;;;4364071;32;20149;-67
2021/03/31 00:47:53;;;;;;;26.00;15.67;;;8.70;84.50;;;;;;4361447;32;20162;-67
2021/03/31 00:50:21;;;;;;;26.00;15.07;;;8.80;84.80;;;;;;4367402;32;20168;-66
2021/03/31 00:52:49;;;;;;;32.07;15.87;;;8.70;85.10;;;;;;4369394;32;20174;-67
2021/03/31 00:55:22;;;;;;;26.57;15.33;;;8.70;84.10;;;;;;4370816;32;20201;-66
2021/03/31 00:57:49;;;;;;;26.00;14.40;;;8.70;84.50;;;;;;4371528;32;20187;-67
2021/03/31 01:00:16;;;;;;;25.97;14.60;;;8.80;84.30;;;;;;4372914;32;20166;-66
2021/03/31 01:02:46;;;;;;;26.20;15.23;;;8.60;85.60;;;;;;4372429;32;20208;-68
2021/03/31 01:05:25;;;;;;;26.40;14.93;;;8.60;86.00;;;;;;4367669;32;20149;-67
2021/03/31 01:07:57;;;;;;;25.37;14.60;;;8.60;85.50;;;;;;4370767;32;20176;-66
2021/03/31 01:10:35;;;;;;;26.23;14.57;;;8.60;85.00;;;;;;4373494;32;20212;-65
2021/03/31 01:13:44;;;;;;;28.20;15.57;;;8.60;86.00;;;;;;4367064;32;20161;-66
2021/03/31 01:16:21;;;;;;;26.93;15.27;;;8.50;86.40;;;;;;4290035;33;20658;-67
2021/03/31 01:18:54;;;;;;;32.13;15.07;;;8.50;86.50;;;;;;4294126;33;20188;-67
2021/03/31 01:22:00;;;;;;;31.27;14.80;;;8.40;87.00;;;;;;4285608;33;20412;-66
2021/03/31 01:25:12;;;;;;;26.57;15.73;;;8.40;86.90;;;;;;4287943;33;20166;-66
2021/03/31 01:28:04;;;;;;;24.87;15.97;;;8.40;87.30;;;;;;4288977;33;20606;-66
2021/03/31 01:30:39;;;;;;;27.47;16.00;;;8.30;86.60;;;;;;4296133;33;20271;-65
2021/03/31 01:33:25;;;;;;;30.90;15.70;;;8.30;86.40;;;;;;4295864;33;20174;-65
2021/03/31 01:35:55;;;;;;;24.97;14.90;;;8.30;88.10;;;;;;4295513;33;20202;-66
2021/03/31 01:38:31;;;;;;;26.57;15.37;;;8.30;87.40;;;;;;4300906;33;20166;-68
2021/03/31 01:41:04;;;;;;;31.93;16.50;;;8.30;88.80;;;;;;4290543;33;20154;-68
2021/03/31 01:43:36;;;;;;;25.17;15.53;;;8.20;88.70;;;;;;4289096;33;20147;-66
2021/03/31 01:46:18;;;;;;;25.93;14.77;;;8.20;88.50;;;;;;4294391;33;20161;-65
2021/03/31 01:48:50;;;;;;;26.03;15.63;;;8.20;88.10;;;;;;4299917;33;20197;-67
2021/03/31 01:51:25;;;;;;;31.60;16.00;;;8.10;87.20;;;;;;4302141;32;20208;-65
2021/03/31 01:53:55;;;;;;;26.97;15.27;;;8.10;87.80;;;;;;4367311;32;20219;-66
2021/03/31 01:56:26;;;;;;;25.93;15.00;;;8.10;88.40;;;;;;4376681;32;20491;-66
2021/03/31 01:59:04;;;;;;;26.50;15.33;;;8.10;89.30;;;;;;4372756;32;20172;-66
2021/03/31 02:01:37;;;;;;;25.53;15.77;;;8.00;88.80;;;;;;4368393;32;20171;-63
2021/03/31 02:04:10;;;;;;;30.13;15.40;;;8.00;88.50;;;;;;4363330;32;20195;-65
2021/03/31 02:06:52;;;;;;;26.67;15.03;;;8.00;89.30;;;;;;4372473;32;20152;-65
2021/03/31 02:09:23;;;;;;;24.53;15.70;;;7.90;88.60;;;;;;4376794;32;20218;-66
2021/03/31 02:11:51;;;;;;;26.13;15.40;;;7.90;89.30;;;;;;4369621;32;20282;-65
2021/03/31 02:14:24;;;;;;;28.77;17.43;;;7.90;89.40;;;;;;4365896;32;20562;-68
2021/03/31 02:17:02;;;;;;;26.30;16.03;;;7.90;89.80;;;;;;4366950;32;20558;-66
2021/03/31 02:19:29;;;;;;;28.63;16.13;;;7.80;89.30;;;;;;4374720;32;20164;-69
2021/03/31 02:21:59;;;;;;;28.20;15.33;;;7.80;90.40;;;;;;4364036;32;20172;-65
2021/03/31 02:24:36;;;;;;;31.47;16.50;;;7.80;90.30;;;;;;4363315;32;20199;-65
2021/03/31 02:27:11;;;;;;;26.27;16.37;;;7.80;90.50;;;;;;4366135;32;20226;-66
2021/03/31 02:29:51;;;;;;;38.03;17.17;;;7.70;90.40;;;;;;4364461;32;20144;-66
2021/03/31 02:32:24;;;;;;;33.23;17.70;;;7.70;90.50;;;;;;4367438;32;20144;-67
2021/03/31 02:35:11;;;;;;;31.97;18.10;;;7.70;90.40;;;;;;4376678;32;20167;-65
2021/03/31 02:37:51;;;;;;;28.33;17.00;;;7.60;90.80;;;;;;4363257;32;20191;-65
2021/03/31 02:40:27;;;;;;;27.10;15.90;;;7.60;90.50;;;;;;4377238;32;20560;-65
2021/03/31 02:43:05;;;;;;;38.37;17.67;;;7.70;90.50;;;;;;4375110;32;20322;-67
2021/03/31 02:45:36;;;;;;;32.07;17.40;;;7.60;90.80;;;;;;4378318;32;20140;-67
2021/03/31 02:48:05;;;;;;;31.57;19.07;;;7.60;91.40;;;;;;4363220;32;20517;-65
2021/03/31 02:50:32;;;;;;;31.57;17.30;;;7.50;90.80;;;;;;4362768;32;20157;-67
2021/03/31 02:53:05;;;;;;;30.80;16.70;;;7.50;91.00;;;;;;4370874;32;20191;-67
2021/03/31 02:55:36;;;;;;;30.63;17.67;;;7.50;91.30;;;;;;4378812;32;20140;-66
2021/03/31 02:58:04;;;;;;;30.57;17.27;;;7.50;91.20;;;;;;4374780;32;20149;-65
2021/03/31 03:00:34;;;;;;;33.40;18.27;;;7.40;90.60;;;;;;4366510;32;20148;-66
2021/03/31 03:03:10;;;;;;;36.00;18.07;;;7.40;90.50;;;;;;4376691;32;20175;-65
2021/03/31 03:05:53;;;;;;;32.53;16.93;;;7.30;90.60;;;;;;4362063;32;20152;-66
2021/03/31 03:08:27;;;;;;;35.90;19.60;;;7.30;90.70;;;;;;4362057;32;20587;-67
2021/03/31 03:10:57;;;;;;;38.83;19.03;;;7.30;91.10;;;;;;4371542;32;20172;-66
2021/03/31 03:13:34;;;;;;;31.77;18.77;;;7.20;90.70;;;;;;4376584;32;20191;-66
2021/03/31 03:16:04;;;;;;;28.70;17.50;;;7.20;90.60;;;;;;4364641;32;20203;-67
2021/03/31 03:18:41;;;;;;;32.63;17.97;;;7.20;91.00;;;;;;4362595;32;20144;-65
2021/03/31 03:21:09;;;;;;;32.13;19.10;;;7.20;90.70;;;;;;4363938;32;20515;-66
2021/03/31 03:23:43;;;;;;;35.33;19.03;;;7.10;91.30;;;;;;4375734;32;20160;-68
2021/03/31 03:26:15;;;;;;;34.37;18.80;;;7.10;91.20;;;;;;4376656;32;20618;-67
2021/03/31 03:28:54;;;;;;;36.23;19.37;;;7.10;91.30;;;;;;4362432;32;20206;-67
2021/03/31 03:31:34;;;;;;;35.30;19.37;;;7.10;91.70;;;;;;4374521;32;20144;-68
2021/03/31 03:34:12;;;;;;;38.73;19.97;;;7.10;91.50;;;;;;4363381;32;20212;-64
2021/03/31 03:36:49;;;;;;;36.27;18.87;;;7.00;91.60;;;;;;4376258;32;20206;-67
2021/03/31 03:39:31;;;;;;;32.80;19.70;;;7.00;91.60;;;;;;4370786;32;20191;-67
2021/03/31 03:44:52;;;;;;;34.13;19.20;;;7.00;91.70;;;;;;4369915;32;20149;-65
2021/03/31 03:47:25;;;;;;;31.50;18.37;;;6.90;91.60;;;;;;4375776;32;20171;-66
2021/03/31 03:49:51;;;;;;;36.17;18.50;;;6.90;91.80;;;;;;4374134;32;20216;-66
2021/03/31 03:52:18;;;;;;;31.33;18.27;;;6.90;91.60;;;;;;4366414;32;20156;-66
2021/03/31 03:54:54;;;;;;;34.10;18.97;;;6.90;92.30;;;;;;4362458;32;20309;-67
2021/03/31 03:57:36;;;;;;;37.53;19.60;;;6.90;91.80;;;;;;4376438;32;20170;-65
2021/03/31 04:00:17;;;;;;;34.50;18.47;;;6.80;91.60;;;;;;4374854;32;20209;-64
2021/03/31 04:02:44;;;;;;;43.10;19.80;;;6.80;92.10;;;;;;4370788;32;20565;-64
2021/03/31 04:05:11;;;;;;;34.87;19.93;;;6.80;92.20;;;;;;4374978;32;20202;-64
2021/03/31 04:07:45;;;;;;;36.90;20.00;;;6.70;91.70;;;;;;4375343;32;20449;-63
2021/03/31 04:10:15;;;;;;;32.93;19.23;;;6.80;92.10;;;;;;4359345;32;20192;-66
2021/03/31 04:12:42;;;;;;;42.37;20.57;;;6.70;92.00;;;;;;4373702;32;20169;-68
2021/03/31 04:15:10;;;;;;;36.33;19.80;;;6.70;92.00;;;;;;4367300;32;20149;-66
2021/03/31 04:17:39;;;;;;;37.27;20.17;;;6.70;92.20;;;;;;4361562;32;20183;-66
2021/03/31 04:20:09;;;;;;;36.87;20.83;;;6.70;92.00;;;;;;4369210;32;20179;-67
2021/03/31 04:22:38;;;;;;;35.30;20.27;;;6.60;92.00;;;;;;4361553;32;20169;-63
2021/03/31 04:25:06;;;;;;;39.73;21.10;;;6.60;91.50;;;;;;4363460;32;20719;-67
2021/03/31 04:27:38;;;;;;;38.20;20.57;;;6.60;92.00;;;;;;4362730;32;20591;-66
2021/03/31 04:30:08;;;;;;;38.03;20.20;;;6.60;92.20;;;;;;4360527;32;20153;-67
2021/03/31 04:32:34;;;;;;;36.43;19.47;;;6.60;92.40;;;;;;4361250;32;20141;-68
2021/03/31 04:35:05;;;;;;;38.20;20.37;;;6.50;92.00;;;;;;4373183;32;20157;-66
2021/03/31 04:37:31;;;;;;;38.20;20.33;;;6.50;92.30;;;;;;4370288;32;20600;-66
2021/03/31 04:39:57;;;;;;;36.53;19.57;;;6.50;92.30;;;;;;4373389;32;20587;-65
2021/03/31 04:42:26;;;;;;;35.07;18.63;;;6.50;91.90;;;;;;4375733;32;20175;-66
2021/03/31 04:44:56;;;;;;;31.90;18.40;;;6.50;92.70;;;;;;4365688;32;20157;-66
2021/03/31 04:47:31;;;;;;;37.27;20.37;;;6.40;92.70;;;;;;4362264;32;20242;-66
2021/03/31 04:50:01;;;;;;;41.67;21.23;;;6.40;92.70;;;;;;4361408;32;20163;-67
2021/03/31 04:52:36;;;;;;;36.67;20.60;;;6.40;92.40;;;;;;4367271;32;20159;-65
2021/03/31 04:55:06;;;;;;;35.40;20.43;;;6.40;92.40;;;;;;4371487;32;20186;-67
2021/03/31 04:57:36;;;;;;;36.53;20.23;;;6.30;92.40;;;;;;4353834;32;20473;-65
2021/03/31 05:00:08;;;;;;;37.20;21.03;;;6.30;92.30;;;;;;4361093;32;20145;-67
2021/03/31 05:02:36;;;;;;;37.47;20.77;;;6.30;92.60;;;;;;4364216;32;20160;-65
2021/03/31 05:05:13;;;;;;;37.37;20.57;;;6.30;92.50;;;;;;4375109;32;20256;-66
2021/03/31 05:07:39;;;;;;;40.87;21.50;;;6.30;92.60;;;;;;4369923;32;20564;-64
2021/03/31 05:10:09;;;;;;;35.40;19.87;;;6.30;92.80;;;;;;4369331;32;20161;-65
2021/03/31 05:12:35;;;;;;;36.37;20.37;;;6.30;92.70;;;;;;4375431;32;20260;-65
2021/03/31 05:15:03;;;;;;;37.20;19.97;;;6.30;92.60;;;;;;4375483;32;20176;-66
2021/03/31 05:17:30;;;;;;;36.57;20.87;;;6.30;92.60;;;;;;4361234;32;20187;-64
2021/03/31 05:19:56;;;;;;;40.37;20.80;;;6.20;92.60;;;;;;4366260;32;20572;-65
2021/03/31 05:22:24;;;;;;;34.87;19.67;;;6.30;92.80;;;;;;4372291;32;20164;-65
2021/03/31 05:24:50;;;;;;;37.87;21.17;;;6.30;92.60;;;;;;4372893;32;20199;-63
2021/03/31 05:27:19;;;;;;;40.60;21.27;;;6.30;92.70;;;;;;4367193;32;20508;-63
2021/03/31 05:29:47;;;;;;;39.00;21.07;;;6.30;92.70;;;;;;4365056;32;20206;-64
2021/03/31 05:32:17;;;;;;;34.03;19.30;;;6.30;92.80;;;;;;4360009;32;20173;-63
2021/03/31 05:34:44;;;;;;;38.23;22.13;;;6.40;92.70;;;;;;4369330;32;20184;-63
2021/03/31 05:37:12;;;;;;;42.93;22.37;;;6.40;92.60;;;;;;4374005;32;20188;-63
2021/03/31 05:39:38;;;;;;;34.97;20.37;;;6.50;92.50;;;;;;4364667;32;20152;-64
2021/03/31 05:42:10;;;;;;;41.10;20.87;;;6.50;92.40;;;;;;4365921;32;20189;-64
2021/03/31 05:44:36;;;;;;;40.17;20.87;;;6.50;92.50;;;;;;4365209;32;20161;-63
2021/03/31 05:47:04;;;;;;;38.47;21.23;;;6.50;92.10;;;;;;4369797;32;20622;-64
2021/03/31 05:49:34;;;;;;;41.27;22.57;;;6.60;92.20;;;;;;4363969;32;20170;-63
2021/03/31 05:52:00;;;;;;;38.60;20.20;;;6.70;91.80;;;;;;4365501;32;20179;-65
2021/03/31 05:54:31;;;;;;;39.20;21.33;;;6.70;91.90;;;;;;4364721;32;20235;-63
2021/03/31 05:57:07;;;;;;;38.77;20.67;;;6.70;92.10;;;;;;4368346;32;20141;-65
2021/03/31 05:59:38;;;;;;;44.80;22.73;;;6.80;92.20;;;;;;4367268;32;20215;-64
2021/03/31 06:02:06;;;;;;;41.83;21.90;;;6.90;92.00;;;;;;4367868;32;20148;-63
2021/03/31 06:04:36;;;;;;;37.07;21.00;;;7.00;91.90;;;;;;4368972;32;20169;-64
2021/03/31 06:07:26;;;;;;;45.53;23.67;;;7.00;91.60;;;;;;4367666;32;20171;-63
2021/03/31 06:10:14;;;;;;;37.10;21.43;;;7.10;91.60;;;;;;4367145;32;20164;-65
2021/03/31 06:12:46;;;;;;;37.80;21.87;;;7.30;91.70;;;;;;4369284;32;20149;-64
2021/03/31 06:15:17;;;;;;;41.93;22.73;;;7.30;91.40;;;;;;4369107;32;20160;-65
2021/03/31 06:17:46;;;;;;;38.70;22.97;;;7.40;91.40;;;;;;4369203;32;20152;-65
2021/03/31 06:20:56;;;;;;;38.70;21.67;;;7.50;91.20;;;;;;4370043;32;20239;-64
2021/03/31 06:23:48;;;;;;;37.50;20.80;;;7.70;91.10;;;;;;4361800;32;20156;-64
2021/03/31 06:26:58;;;;;;;38.60;21.67;;;7.80;91.00;;;;;;4360498;32;20594;-64
2021/03/31 06:29:43;;;;;;;38.97;21.03;;;8.00;90.70;;;;;;4308834;33;20301;-65
2021/03/31 06:32:26;;;;;;;38.10;20.80;;;8.10;90.40;;;;;;4311049;33;20157;-63
2021/03/31 06:34:56;;;;;;;37.13;22.33;;;8.30;90.10;;;;;;4309082;33;20158;-64
2021/03/31 06:37:35;;;;;;;47.00;26.33;;;8.40;90.60;;;;;;4310078;33;20158;-64
2021/03/31 06:40:09;;;;;;;41.10;23.83;;;8.60;90.00;;;;;;4311005;33;20158;-64
2021/03/31 06:42:42;;;;;;;45.77;25.63;;;8.70;89.10;;;;;;4309809;33;20204;-65
2021/03/31 06:45:14;;;;;;;44.43;25.97;;;8.90;88.10;;;;;;4312947;33;20329;-65
2021/03/31 06:47:47;;;;;;;45.37;26.60;;;9.00;86.50;;;;;;4310355;33;20652;-65
2021/03/31 06:50:19;;;;;;;41.93;24.27;;;9.20;85.40;;;;;;4309479;33;20526;-64
2021/03/31 06:52:59;;;;;;;45.77;25.93;;;9.40;85.30;;;;;;4309767;33;20189;-64
2021/03/31 06:55:29;;;;;;;45.87;27.43;;;9.60;84.40;;;;;;4310832;33;20201;-65
2021/03/31 06:57:58;;;;;;;49.93;27.43;;;9.80;83.60;;;;;;4312451;33;20618;-64
2021/03/31 07:00:29;;;;;;;45.07;26.23;;;10.00;82.40;;;;;;4310365;33;20230;-65
2021/03/31 07:03:00;;;;;;;47.57;26.23;;;10.20;81.60;;;;;;4310939;33;20227;-64
2021/03/31 07:05:32;;;;;;;45.03;26.90;;;10.40;80.60;;;;;;4321717;32;20227;-65
2021/03/31 07:08:06;;;;;;;50.00;28.53;;;10.50;79.80;;;;;;4362727;32;20163;-66
2021/03/31 07:10:47;;;;;;;51.77;27.97;;;10.80;78.60;;;;;;4364500;32;20226;-66
2021/03/31 07:13:28;;;;;;;46.00;26.87;;;11.00;77.90;;;;;;4359722;32;20218;-64
2021/03/31 07:15:55;;;;;;;46.87;26.43;;;11.20;76.80;;;;;;4361335;32;20188;-66
2021/03/31 07:18:25;;;;;;;53.57;28.20;;;11.40;76.50;;;;;;4360463;32;20161;-64
2021/03/31 07:20:52;;;;;;;46.10;27.40;;;11.50;75.70;;;;;;4363145;32;20170;-65
2021/03/31 07:23:23;;;;;;;47.17;27.70;;;11.70;75.30;;;;;;4359778;32;20170;-65
2021/03/31 07:25:50;;;;;;;41.37;26.10;;;11.80;74.80;;;;;;4362805;32;20172;-65
2021/03/31 07:28:18;;;;;;;43.83;28.23;;;12.00;75.00;;;;;;4363210;32;20157;-64
2021/03/31 07:30:58;;;;;;;45.33;28.90;;;12.20;73.90;;;;;;4360679;32;20206;-66
2021/03/31 07:33:32;;;;;;;48.10;29.17;;;12.30;73.40;;;;;;4360143;32;20754;-64
2021/03/31 07:36:01;;;;;;;47.60;28.83;;;12.50;73.50;;;;;;4360948;32;20569;-64
2021/03/31 07:38:29;;;;;;;51.23;30.63;;;12.60;73.00;;;;;;4362629;32;20208;-64
2021/03/31 07:40:59;;;;;;;47.63;29.87;;;12.80;71.50;;;;;;4361547;32;20211;-65
2021/03/31 07:43:31;;;;;;;48.60;30.27;;;13.00;71.20;;;;;;4362868;32;20253;-65
2021/03/31 07:46:03;;;;;;;52.17;30.50;;;13.20;71.10;;;;;;4361750;32;20585;-63
2021/03/31 07:48:33;;;;;;;47.27;28.77;;;13.50;69.40;;;;;;4362012;32;20215;-66
2021/03/31 07:51:18;;;;;;;48.07;30.17;;;13.80;69.20;;;;;;4362937;32;20228;-64
2021/03/31 07:53:49;;;;;;;43.93;30.80;;;14.20;68.60;;;;;;4364144;32;20148;-66
2021/03/31 07:56:31;;;;;;;50.17;30.40;;;14.50;67.60;;;;;;4365034;32;20204;-66
2021/03/31 07:59:15;;;;;;;50.73;31.00;;;14.90;66.40;;;;;;4369012;32;20140;-66
2021/03/31 08:01:45;;;;;;;51.90;33.00;;;15.20;65.10;;;;;;4362390;32;20566;-66
2021/03/31 08:04:12;;;;;;;50.00;31.23;;;15.50;63.10;;;;;;4363316;32;20145;-64
2021/03/31 08:06:49;;;;;;;43.63;30.03;;;15.80;62.20;;;;;;4363443;32;20152;-65
2021/03/31 08:09:29;;;;;;;48.77;31.93;;;16.20;61.10;;;;;;4362479;32;20146;-63
2021/03/31 08:11:58;;;;;;;44.43;29.40;;;16.60;60.00;;;;;;4365281;32;20275;-63
2021/03/31 08:14:48;;;;;;;47.17;29.90;;;16.80;60.10;;;;;;4363649;32;20662;-65
2021/03/31 08:17:16;;;;;;;47.53;30.10;;;17.30;59.20;;;;;;4359514;32;20216;-65
2021/03/31 08:19:57;;;;;;;53.03;31.80;;;17.80;57.60;;;;;;4366099;32;20160;-66
2021/03/31 08:22:34;;;;;;;50.93;32.23;;;18.10;55.70;;;;;;4358038;32;20190;-66
2021/03/31 08:25:35;;;;;;;45.67;30.93;;;19.50;53.60;;;;;;4365404;32;20144;-63
2021/03/31 08:28:07;;;;;;;42.27;30.37;;;23.80;45.50;;;;;;4320422;33;20179;-64
2021/03/31 08:30:40;;;;;;;44.27;29.70;;;29.10;37.00;;;;;;4320717;33;20193;-65
2021/03/31 08:33:11;;;;;;;45.57;28.73;;;32.50;33.00;;;;;;4321491;33;20688;-66
2021/03/31 08:35:45;;;;;;;44.90;30.73;;;35.20;30.50;;;;;;4329596;33;20173;-66
2021/03/31 08:38:28;;;;;;;43.25;29.73;;;37.30;29.00;;;;;;4318784;33;20203;-66
2021/03/31 08:40:55;;;;;;;44.25;31.58;;;39.20;28.10;;;;;;4322409;33;20165;-67
2021/03/31 08:43:23;;;;;;;49.00;32.28;;;40.40;27.40;;;;;;4323181;33;20166;-65
2021/03/31 08:45:54;;;;;;;44.80;31.45;;;41.40;26.60;;;;;;4322454;33;20293;-66
2021/03/31 08:48:46;;;;;;;39.88;31.20;;;41.80;26.60;;;;;;4318438;33;20528;-66
2021/03/31 08:51:31;;;;;;;42.35;31.65;;;42.10;26.60;;;;;;4320850;33;20170;-66
2021/03/31 08:55:31;;;;;;;36.83;30.50;;;41.90;26.50;;;;;;4319380;33;20505;-66
2021/03/31 08:58:01;;;;;;;41.67;31.83;;;37.80;27.70;;;;;;4321938;33;20160;-66
2021/03/31 09:00:29;;;;;;;47.83;32.53;;;31.50;30.80;;;;;;4323505;33;20162;-65
2021/03/31 09:03:23;;;;;;;46.37;35.20;;;28.00;33.70;;;;;;4322672;33;20551;-65
2021/03/31 09:06:01;;;;;;;44.67;34.20;;;25.60;36.40;;;;;;4353689;32;20207;-66
2021/03/31 09:08:29;;;;;;;49.37;32.60;;;23.60;39.40;;;;;;4371788;32;20611;-66
2021/03/31 09:11:02;;;;;;;43.10;32.90;;;22.70;42.00;;;;;;4370047;32;20219;-66
2021/03/31 09:13:35;;;;;;;45.97;34.13;;;22.00;44.90;;;;;;4373465;32;20187;-66
2021/03/31 09:16:18;;;;;;;;;;;;;;;;;;;;;
2021/03/31 09:18:48;;;;;;;49.67;34.77;;;21.00;49.70;;;;;;4363078;32;20148;-66
2021/03/31 09:21:49;;;;;;;45.33;34.03;;;20.70;51.20;;;;;;4368652;32;20156;-65
2021/03/31 09:24:31;;;;;;;51.50;34.70;;;20.50;52.10;;;;;;4371196;32;20225;-66
2021/03/31 09:27:28;;;;;;;48.97;35.43;;;20.40;53.90;;;;;;4367690;32;20607;-67
2021/03/31 09:30:00;;;;;;;54.07;35.57;;;20.30;54.10;;;;;;4367919;32;20182;-65
2021/03/31 09:32:50;;;;;;;46.73;34.00;;;20.30;54.00;;;;;;4370194;32;20205;-66
2021/03/31 09:35:20;;;;;;;49.47;34.57;;;20.20;53.90;;;;;;4365118;32;20216;-66
2021/03/31 09:37:55;;;;;;;50.90;36.30;;;20.10;55.20;;;;;;4368283;32;20190;-65
2021/03/31 09:41:02;;;;;;;48.87;34.33;;;20.00;55.80;;;;;;4363626;32;20183;-66
2021/03/31 09:43:45;;;;;;;53.23;35.23;;;20.00;56.00;;;;;;4366577;32;20175;-66
2021/03/31 09:46:40;;;;;;;55.63;34.60;;;19.90;56.00;;;;;;4364334;32;20206;-66
2021/03/31 09:49:11;;;;;;;56.63;36.07;;;20.10;55.50;;;;;;4368549;32;20233;-66
2021/03/31 09:51:38;;;;;;;51.17;35.93;;;20.10;55.30;;;;;;4367272;32;20179;-66
2021/03/31 09:54:13;;;;;;;56.10;35.20;;;20.20;54.00;;;;;;4370151;32;20226;-66
2021/03/31 09:56:44;;;;;;;49.57;34.33;;;20.20;55.00;;;;;;4363589;32;20595;-66
2021/03/31 09:59:11;;;;;;;51.93;36.40;;;20.30;55.80;;;;;;4371957;32;20240;-66
2021/03/31 10:02:01;;;;;;;50.77;34.57;;;20.40;54.40;;;;;;4374393;32;20173;-65
2021/03/31 10:04:38;;;;;;;51.97;33.90;;;20.50;53.70;;;;;;4367377;32;20165;-65
2021/03/31 10:07:54;;;;;;;47.17;32.97;;;20.60;53.80;;;;;;4371167;32;20616;-67
2021/03/31 10:10:40;;;;;;;44.23;29.93;;;20.80;54.40;;;;;;4368438;32;20179;-66
2021/03/31 10:16:40;;;;;;;38.80;28.17;;;21.10;53.50;;;;;;4354143;32;20242;-68
2021/03/31 10:19:08;;;;;;;47.57;31.57;;;21.20;54.00;;;;;;4365603;32;20275;-68
2021/03/31 10:21:36;;;;;;;42.07;29.23;;;21.40;52.90;;;;;;4363528;32;20245;-68
2021/03/31 10:24:05;;;;;;;41.07;29.30;;;21.30;51.70;;;;;;4363077;32;20181;-67
2021/03/31 10:26:33;;;;;;;46.63;33.10;;;21.40;52.30;;;;;;4362306;32;20156;-68
2021/03/31 10:29:23;;;;;;;42.93;30.43;;;21.30;52.90;;;;;;4366096;32;20157;-67
2021/03/31 10:32:05;;;;;;;44.17;31.47;;;21.40;52.90;;;;;;4353629;32;20186;-68
2021/03/31 10:34:41;;;;;;;46.83;32.03;;;21.60;52.50;;;;;;4367073;32;20235;-67
2021/03/31 10:37:25;;;;;;;46.70;33.40;;;21.70;53.80;;;;;;4367110;32;20161;-68
2021/03/31 10:48:30;;;;;;;48.27;29.77;;;21.90;53.00;;;;;;4363039;32;20292;-67
2021/03/31 10:51:02;;;;;;;41.03;27.13;;;21.90;51.40;;;;;;4365431;32;20197;-68
2021/03/31 10:53:38;;;;;;;39.50;26.27;;;21.90;51.40;;;;;;4369293;32;20243;-67
2021/03/31 10:56:05;;;;;;;38.03;25.67;;;21.90;49.00;;;;;;4367864;32;20191;-68
2021/03/31 10:58:32;;;;;;;42.47;28.40;;;22.00;48.50;;;;;;4367556;32;20164;-68
2021/03/31 11:00:59;;;;;;;38.77;29.67;;;22.00;48.90;;;;;;4363754;32;20219;-68
2021/03/31 11:03:27;;;;;;;40.17;27.87;;;22.00;50.10;;;;;;4361111;32;20195;-67
2021/03/31 11:05:54;;;;;;;41.47;30.50;;;22.10;51.70;;;;;;4364096;32;20561;-68
2021/03/31 11:17:48;;;;;;;44.30;28.40;;;22.20;52.70;;;;;;4348984;32;20174;-67
2021/03/31 11:20:31;;;;;;;36.93;26.50;;;22.30;51.70;;;;;;4362565;32;20148;-68
2021/03/31 11:25:49;;;;;;;36.10;26.03;;;22.30;50.70;;;;;;4363573;32;20226;-66
2021/03/31 11:28:15;;;;;;;38.27;24.53;;;22.30;51.90;;;;;;4363701;32;20218;-67
2021/03/31 11:30:42;;;;;;;35.73;22.83;;;22.40;50.70;;;;;;4361694;32;20235;-66
2021/03/31 11:33:21;;;;;;;37.07;23.73;;;22.50;48.80;;;;;;4364141;32;20157;-68
2021/03/31 11:35:48;;;;;;;33.93;22.27;;;22.50;48.30;;;;;;4363138;32;20227;-68
2021/03/31 11:38:14;;;;;;;37.90;23.63;;;22.60;47.80;;;;;;4365743;32;20156;-67
2021/03/31 11:40:41;;;;;;;37.23;24.00;;;22.70;47.80;;;;;;4364749;32;20683;-68
2021/03/31 11:43:10;;;;;;;37.00;22.73;;;22.70;46.50;;;;;;4366566;32;20211;-67
2021/03/31 11:45:36;;;;;;;37.70;24.47;;;22.60;47.10;;;;;;4361750;32;20191;-67
2021/03/31 11:48:03;;;;;;;43.87;25.53;;;22.70;47.10;;;;;;4361270;32;20214;-68
2021/03/31 11:50:32;;;;;;;41.67;25.97;;;22.80;47.70;;;;;;4366952;32;20234;-68
2021/03/31 11:52:58;;;;;;;38.03;25.67;;;22.80;47.90;;;;;;4363323;32;20301;-67
2021/03/31 11:55:28;;;;;;;39.07;23.77;;;22.80;48.10;;;;;;4361934;32;20231;-67
2021/03/31 11:57:54;;;;;;;42.00;26.23;;;22.80;48.80;;;;;;4366573;32;20186;-68
2021/03/31 12:00:22;;;;;;;40.57;25.83;;;22.70;48.90;;;;;;4365811;32;20258;-67
2021/03/31 12:02:49;;;;;;;39.30;26.23;;;22.70;48.50;;;;;;4356710;32;20232;-67
2021/03/31 12:05:19;;;;;;;39.50;24.47;;;22.80;49.20;;;;;;4360939;32;20206;-67
2021/03/31 12:07:46;;;;;;;42.40;27.03;;;22.80;49.00;;;;;;4362036;32;20242;-68
2021/03/31 12:10:13;;;;;;;36.53;24.20;;;22.80;47.70;;;;;;4362453;32;20257;-66
2021/03/31 12:12:42;;;;;;;40.07;26.17;;;22.90;48.10;;;;;;4362386;32;20584;-67
2021/03/31 12:15:11;;;;;;;41.90;24.83;;;22.90;48.10;;;;;;4360089;32;20285;-68
2021/03/31 12:17:38;;;;;;;33.10;21.73;;;22.90;48.30;;;;;;4368426;32;21265;-66
2021/03/31 12:20:07;;;;;;;35.50;24.37;;;23.00;48.50;;;;;;4364823;32;20188;-68
2021/03/31 12:22:33;;;;;;;33.38;22.83;;;23.10;47.90;;;;;;4364662;32;20175;-68
2021/03/31 12:25:01;;;;;;;35.27;23.77;;;23.10;47.10;;;;;;4358531;32;20160;-66
2021/03/31 12:27:28;;;;;;;36.40;22.83;;;23.10;47.70;;;;;;4361780;32;20250;-69
2021/03/31 12:29:55;;;;;;;32.13;21.57;;;23.10;47.70;;;;;;4358994;32;20157;-66
2021/03/31 12:32:21;;;;;;;42.17;25.23;;;23.10;47.30;;;;;;4361763;32;20153;-67
2021/03/31 12:34:48;;;;;;;37.07;23.03;;;23.20;46.40;;;;;;4365405;32;20172;-66
2021/03/31 12:37:15;;;;;;;35.77;21.87;;;23.20;47.50;;;;;;4361737;32;20219;-69
2021/03/31 12:39:44;;;;;;;37.10;23.87;;;23.10;47.30;;;;;;4357855;32;20217;-69
2021/03/31 12:42:11;;;;;;;41.23;22.90;;;23.10;45.90;;;;;;4359445;32;20161;-68
2021/03/31 12:44:38;;;;;;;37.53;23.30;;;23.00;46.80;;;;;;4358128;32;20623;-68
2021/03/31 12:47:16;;;;;;;38.30;23.07;;;23.10;46.40;;;;;;4361353;32;20266;-70
2021/03/31 12:49:43;;;;;;;36.40;22.40;;;23.00;46.40;;;;;;4363038;32;20152;-69
2021/03/31 12:52:13;;;;;;;36.23;22.80;;;23.10;46.40;;;;;;4363022;32;20218;-67
2021/03/31 12:54:43;;;;;;;40.17;24.77;;;23.00;47.00;;;;;;4363212;32;20184;-68
2021/03/31 12:57:11;;;;;;;38.97;23.97;;;23.00;47.00;;;;;;4362674;32;20682;-67
2021/03/31 12:59:37;;;;;;;42.23;25.63;;;23.10;46.80;;;;;;4360421;32;20489;-67
2021/03/31 13:02:04;;;;;;;35.97;22.97;;;23.10;47.50;;;;;;4363434;32;20165;-67
2021/03/31 13:04:30;;;;;;;32.47;22.10;;;23.10;46.90;;;;;;4363838;32;20515;-69
2021/03/31 13:06:56;;;;;;;41.22;24.05;;;23.10;47.80;;;;;;4363027;32;20241;-67
2021/03/31 13:09:23;;;;;;;39.77;25.23;;;23.20;46.70;;;;;;4363472;32;20161;-67
2021/03/31 13:11:51;;;;;;;36.60;23.40;;;23.20;45.90;;;;;;4364794;32;21209;-69
2021/03/31 13:17:18;;;;;;;40.47;23.27;;;23.10;46.10;;;;;;4362332;32;20550;-67
2021/03/31 13:22:37;;;;;;;44.37;24.23;;;23.00;44.90;;;;;;4362568;32;20269;-68
2021/03/31 13:25:14;;;;;;;43.40;22.13;;;23.00;45.40;;;;;;4363641;32;20250;-67
2021/03/31 13:30:41;;;;;;;41.13;21.90;;;23.00;47.00;;;;;;4361923;32;20539;-67
2021/03/31 13:33:10;;;;;;;39.53;23.27;;;23.00;46.00;;;;;;4364302;32;20220;-67
2021/03/31 13:35:42;;;;;;;37.00;22.50;;;23.00;47.10;;;;;;4361756;32;20211;-68
2021/03/31 13:38:14;;;;;;;41.40;24.53;;;23.10;47.60;;;;;;4361775;32;20148;-67
2021/03/31 13:40:41;;;;;;;38.47;22.53;;;23.10;47.70;;;;;;4362865;32;20574;-68